Zheleznogorsk, Russia
Current Conditions -  °F | °C
As of 4:00 PM on Tuesday 21 Oct 2014 (Local Time) from UUOK Reporting Station
Light Rain Light Rain  
Wind Chill: 50°   Ceiling: 1100
Heat Index: 50°   Visibility: 2.5mi
Dew Point: 45°   Wind: 16mph
Humidity: 82%   Direction: 250°WSW
Pressure: 29.5"   Gusts: 27mph
Location:  52.35°N, 35.41°E
Report Text: UUOK 211300Z 25007G12MPS 4000 -RA BR OVC011 10/07 Q0999 NOSIGRMK 30290050
Loading
Personal Weather Stations






























Interactive Weather Map
Tropical Storm Tracking
New forecast layout! Learn more

10-Day Weather Forecast

Advertisements
Track Severe Weather on mobile